Terminal Aerodrome Forecast
Issued by NWS

Home | Current Version | Previous Version | Text Only | Print | Product List | Glossary On
Versions: 1 2 3 4 5 6 7 8 9 10 11 12
000
FTUS45 KGJT 160537
TAFVEL
TAF
KVEL 160537Z 1606/1706 27005KT P6SM OVC200
     FM162100 05004KT P6SM BKN110 BKN130=

USA.gov is the U.S. government's official web portal to all federal, state and local government web resources and services.